sensor_id;sensor_type;location;lat;lon;timestamp;pressure;altitude;pressure_sealevel;temperature;humidity
13867;BME280;7003;46.982;15.248;2022-10-13T00:02:03;97882.97;;;10.96;100.00
13867;BME280;7003;46.982;15.248;2022-10-13T00:04:30;97881.56;;;10.90;100.00
13867;BME280;7003;46.982;15.248;2022-10-13T00:07:01;97890.00;;;10.83;100.00
13867;BME280;7003;46.982;15.248;2022-10-13T00:09:31;97885.28;;;10.80;100.00
13867;BME280;7003;46.982;15.248;2022-10-13T00:12:00;97878.44;;;10.96;100.00
13867;BME280;7003;46.982;15.248;2022-10-13T00:14:27;97886.84;;;10.81;100.00
13867;BME280;7003;46.982;15.248;2022-10-13T00:16:57;97884.16;;;10.72;100.00
13867;BME280;7003;46.982;15.248;2022-10-13T00:19:24;97888.34;;;10.65;100.00
13867;BME280;7003;46.982;15.248;2022-10-13T00:21:55;97882.25;;;10.64;100.00
13867;BME280;7003;46.982;15.248;2022-10-13T00:24:23;97878.22;;;10.75;100.00
13867;BME280;7003;46.982;15.248;2022-10-13T00:26:53;97874.13;;;10.69;100.00
13867;BME280;7003;46.982;15.248;2022-10-13T00:29:22;97870.06;;;10.72;100.00
13867;BME280;7003;46.982;15.248;2022-10-13T00:31:52;97876.13;;;10.64;100.00
13867;BME280;7003;46.982;15.248;2022-10-13T00:34:19;97871.34;;;10.74;100.00
13867;BME280;7003;46.982;15.248;2022-10-13T00:36:48;97873.69;;;10.76;100.00
13867;BME280;7003;46.982;15.248;2022-10-13T00:39:18;97876.91;;;10.64;100.00
13867;BME280;7003;46.982;15.248;2022-10-13T00:41:46;97866.00;;;10.74;100.00
13867;BME280;7003;46.982;15.248;2022-10-13T00:47:37;97867.16;;;10.51;100.00
13867;BME280;7003;46.982;15.248;2022-10-13T00:50:08;97864.31;;;10.48;100.00
13867;BME280;7003;46.982;15.248;2022-10-13T00:52:38;97864.72;;;10.32;100.00
13867;BME280;7003;46.982;15.248;2022-10-13T00:55:10;97861.31;;;10.40;100.00
13867;BME280;7003;46.982;15.248;2022-10-13T00:57:42;97859.19;;;10.20;100.00
13867;BME280;7003;46.982;15.248;2022-10-13T01:00:12;97857.63;;;10.19;100.00
13867;BME280;7003;46.982;15.248;2022-10-13T01:02:40;97858.50;;;10.15;100.00
13867;BME280;7003;46.982;15.248;2022-10-13T01:05:07;97854.69;;;10.07;100.00
13867;BME280;7003;46.982;15.248;2022-10-13T01:07:34;97855.66;;;10.11;100.00
13867;BME280;7003;46.982;15.248;2022-10-13T01:10:05;97847.69;;;10.11;100.00
13867;BME280;7003;46.982;15.248;2022-10-13T01:12:44;97847.50;;;10.08;100.00
13867;BME280;7003;46.982;15.248;2022-10-13T01:15:21;97843.91;;;10.03;100.00
13867;BME280;7003;46.982;15.248;2022-10-13T01:18:01;97849.06;;;10.09;100.00
13867;BME280;7003;46.982;15.248;2022-10-13T01:20:39;97847.47;;;10.21;100.00
13867;BME280;7003;46.982;15.248;2022-10-13T01:23:34;97847.50;;;10.08;100.00
13867;BME280;7003;46.982;15.248;2022-10-13T01:26:22;97837.00;;;10.02;100.00
13867;BME280;7003;46.982;15.248;2022-10-13T01:29:10;97835.38;;;9.93;100.00
13867;BME280;7003;46.982;15.248;2022-10-13T01:31:46;97843.22;;;9.76;100.00
13867;BME280;7003;46.982;15.248;2022-10-13T01:34:19;97840.91;;;9.74;100.00
13867;BME280;7003;46.982;15.248;2022-10-13T01:36:55;97846.94;;;9.66;100.00
13867;BME280;7003;46.982;15.248;2022-10-13T01:39:33;97845.53;;;9.69;100.00
13867;BME280;7003;46.982;15.248;2022-10-13T01:42:05;97839.63;;;9.94;100.00
13867;BME280;7003;46.982;15.248;2022-10-13T01:44:40;97836.81;;;9.99;100.00
13867;BME280;7003;46.982;15.248;2022-10-13T01:47:14;97833.22;;;9.95;100.00
13867;BME280;7003;46.982;15.248;2022-10-13T01:49:44;97835.75;;;9.78;100.00
13867;BME280;7003;46.982;15.248;2022-10-13T01:52:14;97834.06;;;9.82;100.00
13867;BME280;7003;46.982;15.248;2022-10-13T01:54:47;97838.34;;;9.69;100.00
13867;BME280;7003;46.982;15.248;2022-10-13T01:57:29;97828.16;;;9.62;100.00
13867;BME280;7003;46.982;15.248;2022-10-13T02:00:01;97822.97;;;9.57;100.00
13867;BME280;7003;46.982;15.248;2022-10-13T02:02:34;97819.81;;;9.55;100.00
13867;BME280;7003;46.982;15.248;2022-10-13T02:05:14;97816.88;;;9.57;100.00
13867;BME280;7003;46.982;15.248;2022-10-13T02:07:45;97812.75;;;9.51;100.00
13867;BME280;7003;46.982;15.248;2022-10-13T02:10:19;97818.50;;;9.44;100.00
13867;BME280;7003;46.982;15.248;2022-10-13T02:12:51;97824.41;;;9.41;100.00
13867;BME280;7003;46.982;15.248;2022-10-13T02:15:26;97818.97;;;9.46;100.00
13867;BME280;7003;46.982;15.248;2022-10-13T02:17:57;97819.81;;;9.33;100.00
13867;BME280;7003;46.982;15.248;2022-10-13T02:20:29;97809.19;;;9.55;100.00
13867;BME280;7003;46.982;15.248;2022-10-13T02:23:02;97810.25;;;9.32;100.00
13867;BME280;7003;46.982;15.248;2022-10-13T02:25:33;97819.94;;;9.28;100.00
13867;BME280;7003;46.982;15.248;2022-10-13T02:28:04;97823.41;;;9.37;100.00
13867;BME280;7003;46.982;15.248;2022-10-13T02:30:32;97821.09;;;9.36;100.00
13867;BME280;7003;46.982;15.248;2022-10-13T02:33:01;97818.22;;;9.32;100.00
13867;BME280;7003;46.982;15.248;2022-10-13T02:35:28;97820.31;;;9.21;100.00
13867;BME280;7003;46.982;15.248;2022-10-13T02:37:57;97817.50;;;9.18;100.00
13867;BME280;7003;46.982;15.248;2022-10-13T02:40:25;97819.75;;;8.75;100.00
13867;BME280;7003;46.982;15.248;2022-10-13T02:42:54;97818.44;;;8.72;100.00
13867;BME280;7003;46.982;15.248;2022-10-13T02:45:24;97815.09;;;8.80;100.00
13867;BME280;7003;46.982;15.248;2022-10-13T02:47:54;97816.97;;;8.80;100.00
13867;BME280;7003;46.982;15.248;2022-10-13T02:50:26;97820.97;;;9.05;100.00
13867;BME280;7003;46.982;15.248;2022-10-13T02:52:56;97819.72;;;8.88;100.00
13867;BME280;7003;46.982;15.248;2022-10-13T02:55:23;97817.25;;;8.92;100.00
13867;BME280;7003;46.982;15.248;2022-10-13T02:57:52;97816.28;;;8.88;100.00
13867;BME280;7003;46.982;15.248;2022-10-13T03:00:22;97805.38;;;8.76;100.00
13867;BME280;7003;46.982;15.248;2022-10-13T03:02:51;97809.03;;;8.66;100.00
13867;BME280;7003;46.982;15.248;2022-10-13T03:05:20;97813.94;;;8.59;100.00
13867;BME280;7003;46.982;15.248;2022-10-13T03:07:51;97810.00;;;8.57;100.00
13867;BME280;7003;46.982;15.248;2022-10-13T03:10:19;97815.50;;;8.60;100.00
13867;BME280;7003;46.982;15.248;2022-10-13T03:12:46;97812.66;;;8.57;100.00
13867;BME280;7003;46.982;15.248;2022-10-13T03:15:15;97806.75;;;8.60;100.00
13867;BME280;7003;46.982;15.248;2022-10-13T03:17:42;97810.69;;;8.62;100.00
13867;BME280;7003;46.982;15.248;2022-10-13T03:20:09;97806.97;;;8.63;100.00
13867;BME280;7003;46.982;15.248;2022-10-13T03:22:36;97809.81;;;8.53;100.00
13867;BME280;7003;46.982;15.248;2022-10-13T03:25:06;97808.63;;;8.45;100.00
13867;BME280;7003;46.982;15.248;2022-10-13T03:27:33;97811.16;;;8.37;100.00
13867;BME280;7003;46.982;15.248;2022-10-13T03:30:03;97814.00;;;8.27;100.00
13867;BME280;7003;46.982;15.248;2022-10-13T03:32:32;97816.50;;;8.51;100.00
13867;BME280;7003;46.982;15.248;2022-10-13T03:35:02;97812.56;;;8.34;100.00
13867;BME280;7003;46.982;15.248;2022-10-13T03:37:31;97805.09;;;8.36;100.00
13867;BME280;7003;46.982;15.248;2022-10-13T03:39:58;97805.44;;;8.30;100.00
13867;BME280;7003;46.982;15.248;2022-10-13T03:42:26;97802.31;;;8.28;100.00
13867;BME280;7003;46.982;15.248;2022-10-13T03:44:53;97804.97;;;8.28;100.00
13867;BME280;7003;46.982;15.248;2022-10-13T03:47:20;97810.56;;;8.26;100.00
13867;BME280;7003;46.982;15.248;2022-10-13T03:49:47;97809.97;;;8.29;100.00
13867;BME280;7003;46.982;15.248;2022-10-13T03:52:14;97806.06;;;8.27;100.00
13867;BME280;7003;46.982;15.248;2022-10-13T03:54:44;97809.50;;;8.27;100.00
13867;BME280;7003;46.982;15.248;2022-10-13T03:57:11;97814.88;;;8.22;100.00
13867;BME280;7003;46.982;15.248;2022-10-13T03:59:40;97807.00;;;8.17;100.00
13867;BME280;7003;46.982;15.248;2022-10-13T04:02:09;97808.59;;;8.18;100.00
13867;BME280;7003;46.982;15.248;2022-10-13T04:04:37;97806.22;;;8.17;100.00
13867;BME280;7003;46.982;15.248;2022-10-13T04:07:07;97814.47;;;8.15;100.00
13867;BME280;7003;46.982;15.248;2022-10-13T04:09:36;97808.97;;;8.11;100.00
13867;BME280;7003;46.982;15.248;2022-10-13T04:12:06;97814.94;;;8.03;100.00
13867;BME280;7003;46.982;15.248;2022-10-13T04:14:34;97808.56;;;8.04;100.00
13867;BME280;7003;46.982;15.248;2022-10-13T04:17:02;97804.41;;;7.85;100.00
13867;BME280;7003;46.982;15.248;2022-10-13T04:19:30;97805.75;;;7.82;100.00
13867;BME280;7003;46.982;15.248;2022-10-13T04:21:56;97797.81;;;7.82;100.00
13867;BME280;7003;46.982;15.248;2022-10-13T04:24:24;97796.75;;;7.83;100.00
13867;BME280;7003;46.982;15.248;2022-10-13T04:26:53;97797.16;;;7.90;100.00
13867;BME280;7003;46.982;15.248;2022-10-13T04:29:21;97791.94;;;7.85;100.00
13867;BME280;7003;46.982;15.248;2022-10-13T04:31:47;97788.72;;;7.88;100.00
13867;BME280;7003;46.982;15.248;2022-10-13T04:34:16;97795.16;;;7.82;100.00
13867;BME280;7003;46.982;15.248;2022-10-13T04:36:43;97803.69;;;7.79;100.00
13867;BME280;7003;46.982;15.248;2022-10-13T04:39:10;97798.31;;;7.84;100.00
13867;BME280;7003;46.982;15.248;2022-10-13T04:41:40;97796.47;;;7.98;100.00
13867;BME280;7003;46.982;15.248;2022-10-13T04:44:09;97801.59;;;7.95;100.00
13867;BME280;7003;46.982;15.248;2022-10-13T04:46:36;97798.69;;;7.78;100.00
13867;BME280;7003;46.982;15.248;2022-10-13T04:49:03;97798.00;;;7.72;100.00
13867;BME280;7003;46.982;15.248;2022-10-13T04:51:35;97804.25;;;7.62;100.00
13867;BME280;7003;46.982;15.248;2022-10-13T04:54:03;97801.59;;;7.62;100.00
13867;BME280;7003;46.982;15.248;2022-10-13T04:56:31;97805.44;;;7.70;100.00
13867;BME280;7003;46.982;15.248;2022-10-13T04:58:58;97806.88;;;7.62;100.00
13867;BME280;7003;46.982;15.248;2022-10-13T05:01:29;97812.88;;;7.68;100.00
13867;BME280;7003;46.982;15.248;2022-10-13T05:04:02;97805.41;;;7.56;100.00
13867;BME280;7003;46.982;15.248;2022-10-13T05:06:32;97811.13;;;7.45;100.00
13867;BME280;7003;46.982;15.248;2022-10-13T05:09:03;97807.22;;;7.42;100.00
13867;BME280;7003;46.982;15.248;2022-10-13T05:11:31;97806.63;;;7.45;100.00
13867;BME280;7003;46.982;15.248;2022-10-13T05:14:02;97798.06;;;7.34;100.00
13867;BME280;7003;46.982;15.248;2022-10-13T05:16:32;97808.63;;;7.53;100.00
13867;BME280;7003;46.982;15.248;2022-10-13T05:19:00;97805.81;;;7.45;100.00
13867;BME280;7003;46.982;15.248;2022-10-13T05:21:29;97805.25;;;7.48;100.00
13867;BME280;7003;46.982;15.248;2022-10-13T05:23:58;97799.47;;;7.46;100.00
13867;BME280;7003;46.982;15.248;2022-10-13T05:26:29;97806.34;;;7.47;100.00
13867;BME280;7003;46.982;15.248;2022-10-13T05:29:00;97806.34;;;7.47;100.00
13867;BME280;7003;46.982;15.248;2022-10-13T05:31:30;97804.75;;;7.46;100.00
13867;BME280;7003;46.982;15.248;2022-10-13T05:34:02;97807.00;;;7.39;100.00
13867;BME280;7003;46.982;15.248;2022-10-13T05:36:32;97808.28;;;7.41;100.00
13867;BME280;7003;46.982;15.248;2022-10-13T05:39:03;97807.41;;;7.46;100.00
13867;BME280;7003;46.982;15.248;2022-10-13T05:41:35;97803.78;;;7.42;100.00
13867;BME280;7003;46.982;15.248;2022-10-13T05:44:06;97799.41;;;7.51;100.00
13867;BME280;7003;46.982;15.248;2022-10-13T05:46:35;97804.38;;;7.71;100.00
13867;BME280;7003;46.982;15.248;2022-10-13T05:49:03;97818.59;;;7.75;100.00
13867;BME280;7003;46.982;15.248;2022-10-13T05:51:32;97820.69;;;7.92;100.00
13867;BME280;7003;46.982;15.248;2022-10-13T05:54:07;97815.28;;;7.83;100.00
13867;BME280;7003;46.982;15.248;2022-10-13T05:56:45;97824.78;;;7.84;100.00
13867;BME280;7003;46.982;15.248;2022-10-13T05:59:17;97821.41;;;7.97;100.00
13867;BME280;7003;46.982;15.248;2022-10-13T06:01:46;97819.38;;;8.22;100.00
13867;BME280;7003;46.982;15.248;2022-10-13T06:04:20;97823.84;;;8.40;100.00
13867;BME280;7003;46.982;15.248;2022-10-13T06:06:49;97831.41;;;8.60;100.00
13867;BME280;7003;46.982;15.248;2022-10-13T06:09:17;97830.13;;;8.71;100.00
13867;BME280;7003;46.982;15.248;2022-10-13T06:11:47;97827.06;;;8.92;100.00
13867;BME280;7003;46.982;15.248;2022-10-13T06:14:15;97833.16;;;9.06;100.00
13867;BME280;7003;46.982;15.248;2022-10-13T06:16:43;97841.03;;;9.33;100.00
13867;BME280;7003;46.982;15.248;2022-10-13T06:19:11;97839.66;;;9.36;100.00
13867;BME280;7003;46.982;15.248;2022-10-13T06:21:42;97836.97;;;9.49;100.00
13867;BME280;7003;46.982;15.248;2022-10-13T06:24:12;97833.38;;;9.54;100.00
13867;BME280;7003;46.982;15.248;2022-10-13T06:26:43;97832.84;;;9.88;100.00
13867;BME280;7003;46.982;15.248;2022-10-13T06:29:14;97831.41;;;10.04;100.00
13867;BME280;7003;46.982;15.248;2022-10-13T06:31:42;97834.03;;;10.26;100.00
13867;BME280;7003;46.982;15.248;2022-10-13T06:34:13;97828.63;;;10.40;100.00
13867;BME280;7003;46.982;15.248;2022-10-13T06:36:41;97834.47;;;10.51;100.00
13867;BME280;7003;46.982;15.248;2022-10-13T06:39:09;97836.69;;;10.26;100.00
13867;BME280;7003;46.982;15.248;2022-10-13T06:41:40;97831.53;;;10.21;100.00
13867;BME280;7003;46.982;15.248;2022-10-13T06:44:09;97831.09;;;10.28;100.00
13867;BME280;7003;46.982;15.248;2022-10-13T06:46:40;97829.75;;;10.48;100.00
13867;BME280;7003;46.982;15.248;2022-10-13T06:49:08;97829.47;;;10.58;100.00
13867;BME280;7003;46.982;15.248;2022-10-13T06:51:37;97837.47;;;10.58;100.00
13867;BME280;7003;46.982;15.248;2022-10-13T06:54:05;97834.88;;;10.75;100.00
13867;BME280;7003;46.982;15.248;2022-10-13T06:56:33;97834.22;;;10.78;100.00
13867;BME280;7003;46.982;15.248;2022-10-13T06:59:01;97836.78;;;11.00;100.00
13867;BME280;7003;46.982;15.248;2022-10-13T07:01:30;97839.78;;;11.16;100.00
13867;BME280;7003;46.982;15.248;2022-10-13T07:03:59;97830.41;;;11.18;100.00
13867;BME280;7003;46.982;15.248;2022-10-13T07:06:28;97832.47;;;11.22;100.00
13867;BME280;7003;46.982;15.248;2022-10-13T07:08:56;97819.78;;;11.36;100.00
13867;BME280;7003;46.982;15.248;2022-10-13T07:11:24;97819.44;;;11.46;100.00
13867;BME280;7003;46.982;15.248;2022-10-13T07:13:53;97827.75;;;11.70;100.00
13867;BME280;7003;46.982;15.248;2022-10-13T07:16:21;97826.06;;;11.74;100.00
13867;BME280;7003;46.982;15.248;2022-10-13T07:18:49;97817.41;;;11.77;100.00
13867;BME280;7003;46.982;15.248;2022-10-13T07:21:18;97818.50;;;11.85;100.00
13867;BME280;7003;46.982;15.248;2022-10-13T07:23:46;97820.19;;;12.07;100.00
13867;BME280;7003;46.982;15.248;2022-10-13T07:26:15;97815.59;;;12.16;100.00
13867;BME280;7003;46.982;15.248;2022-10-13T07:28:43;97815.53;;;12.42;100.00
13867;BME280;7003;46.982;15.248;2022-10-13T07:31:13;97812.72;;;12.38;100.00
13867;BME280;7003;46.982;15.248;2022-10-13T07:33:44;97808.72;;;12.61;100.00
13867;BME280;7003;46.982;15.248;2022-10-13T07:36:13;97803.75;;;12.72;100.00
13867;BME280;7003;46.982;15.248;2022-10-13T07:38:43;97804.56;;;12.72;100.00
13867;BME280;7003;46.982;15.248;2022-10-13T07:41:13;97800.94;;;12.77;100.00
13867;BME280;7003;46.982;15.248;2022-10-13T07:43:42;97807.31;;;12.85;100.00
13867;BME280;7003;46.982;15.248;2022-10-13T07:46:12;97800.63;;;12.99;100.00
13867;BME280;7003;46.982;15.248;2022-10-13T07:48:42;97792.88;;;13.06;100.00
13867;BME280;7003;46.982;15.248;2022-10-13T07:51:11;97787.94;;;13.17;100.00
13867;BME280;7003;46.982;15.248;2022-10-13T07:53:44;97798.50;;;13.34;100.00
13867;BME280;7003;46.982;15.248;2022-10-13T07:56:14;97795.13;;;13.46;100.00
13867;BME280;7003;46.982;15.248;2022-10-13T07:58:45;97791.97;;;13.65;100.00
13867;BME280;7003;46.982;15.248;2022-10-13T08:01:16;97779.75;;;13.76;100.00
13867;BME280;7003;46.982;15.248;2022-10-13T08:03:47;97784.78;;;13.77;100.00
13867;BME280;7003;46.982;15.248;2022-10-13T08:06:15;97781.81;;;14.03;100.00
13867;BME280;7003;46.982;15.248;2022-10-13T08:08:46;97785.94;;;14.46;100.00
13867;BME280;7003;46.982;15.248;2022-10-13T08:11:17;97773.63;;;14.93;100.00
13867;BME280;7003;46.982;15.248;2022-10-13T08:13:46;97783.38;;;15.26;100.00
13867;BME280;7003;46.982;15.248;2022-10-13T08:16:17;97778.06;;;15.41;100.00
13867;BME280;7003;46.982;15.248;2022-10-13T08:18:49;97777.22;;;15.65;100.00
13867;BME280;7003;46.982;15.248;2022-10-13T08:21:20;97782.34;;;15.70;100.00
13867;BME280;7003;46.982;15.248;2022-10-13T08:23:52;97776.47;;;15.81;100.00
13867;BME280;7003;46.982;15.248;2022-10-13T08:26:24;97772.84;;;15.89;100.00
13867;BME280;7003;46.982;15.248;2022-10-13T08:28:54;97768.13;;;15.98;100.00
13867;BME280;7003;46.982;15.248;2022-10-13T08:31:22;97773.78;;;16.24;100.00
13867;BME280;7003;46.982;15.248;2022-10-13T08:33:53;97769.59;;;16.27;100.00
13867;BME280;7003;46.982;15.248;2022-10-13T08:36:21;97760.59;;;16.50;100.00
13867;BME280;7003;46.982;15.248;2022-10-13T08:38:49;97758.44;;;16.40;100.00
13867;BME280;7003;46.982;15.248;2022-10-13T08:41:23;97758.06;;;16.42;100.00
13867;BME280;7003;46.982;15.248;2022-10-13T08:43:55;97762.25;;;16.71;100.00
13867;BME280;7003;46.982;15.248;2022-10-13T08:46:27;97754.50;;;16.85;100.00
13867;BME280;7003;46.982;15.248;2022-10-13T08:48:59;97760.72;;;16.89;100.00
13867;BME280;7003;46.982;15.248;2022-10-13T08:51:29;97762.72;;;17.11;100.00
13867;BME280;7003;46.982;15.248;2022-10-13T08:53:57;97762.56;;;17.04;100.00
13867;BME280;7003;46.982;15.248;2022-10-13T08:56:32;97758.06;;;16.73;100.00
13867;BME280;7003;46.982;15.248;2022-10-13T08:59:03;97759.72;;;16.78;100.00
13867;BME280;7003;46.982;15.248;2022-10-13T09:01:35;97761.97;;;16.60;100.00
13867;BME280;7003;46.982;15.248;2022-10-13T09:04:19;97758.91;;;17.12;100.00
13867;BME280;7003;46.982;15.248;2022-10-13T09:06:52;97761.19;;;17.10;100.00
13867;BME280;7003;46.982;15.248;2022-10-13T09:09:21;97749.94;;;17.24;100.00
13867;BME280;7003;46.982;15.248;2022-10-13T09:11:54;97746.53;;;17.46;100.00
13867;BME280;7003;46.982;15.248;2022-10-13T09:14:24;97740.94;;;17.74;100.00
13867;BME280;7003;46.982;15.248;2022-10-13T09:16:54;97742.34;;;17.87;100.00
13867;BME280;7003;46.982;15.248;2022-10-13T09:19:26;97743.06;;;17.84;100.00
13867;BME280;7003;46.982;15.248;2022-10-13T09:22:13;97743.16;;;17.68;100.00
13867;BME280;7003;46.982;15.248;2022-10-13T09:24:41;97740.94;;;17.55;100.00
13867;BME280;7003;46.982;15.248;2022-10-13T09:27:15;97744.41;;;17.75;100.00
13867;BME280;7003;46.982;15.248;2022-10-13T09:29:44;97736.06;;;18.02;100.00
13867;BME280;7003;46.982;15.248;2022-10-13T09:32:15;97747.22;;;17.82;100.00
13867;BME280;7003;46.982;15.248;2022-10-13T09:34:47;97752.09;;;17.95;100.00
13867;BME280;7003;46.982;15.248;2022-10-13T09:37:19;97745.06;;;17.68;100.00
13867;BME280;7003;46.982;15.248;2022-10-13T09:39:59;97738.56;;;17.69;100.00
13867;BME280;7003;46.982;15.248;2022-10-13T09:42:30;97735.47;;;17.90;100.00
13867;BME280;7003;46.982;15.248;2022-10-13T09:45:00;97729.56;;;18.26;100.00
13867;BME280;7003;46.982;15.248;2022-10-13T09:47:31;97736.72;;;18.41;100.00
13867;BME280;7003;46.982;15.248;2022-10-13T09:50:04;97737.38;;;18.35;100.00
13867;BME280;7003;46.982;15.248;2022-10-13T09:52:45;97739.59;;;17.84;100.00
13867;BME280;7003;46.982;15.248;2022-10-13T09:55:28;97737.63;;;18.03;100.00
13867;BME280;7003;46.982;15.248;2022-10-13T09:58:04;97727.38;;;17.90;100.00
13867;BME280;7003;46.982;15.248;2022-10-13T10:00:34;97733.19;;;18.15;100.00
13867;BME280;7003;46.982;15.248;2022-10-13T10:03:09;97729.75;;;18.40;100.00
13867;BME280;7003;46.982;15.248;2022-10-13T10:05:44;97728.00;;;18.25;100.00
13867;BME280;7003;46.982;15.248;2022-10-13T10:08:19;97725.16;;;18.41;100.00
13867;BME280;7003;46.982;15.248;2022-10-13T10:10:48;97728.25;;;18.43;100.00
13867;BME280;7003;46.982;15.248;2022-10-13T10:13:17;97719.59;;;18.79;100.00
13867;BME280;7003;46.982;15.248;2022-10-13T10:15:52;97720.41;;;18.83;100.00
13867;BME280;7003;46.982;15.248;2022-10-13T10:18:30;97722.22;;;19.06;100.00
13867;BME280;7003;46.982;15.248;2022-10-13T10:21:07;97715.88;;;19.51;100.00
13867;BME280;7003;46.982;15.248;2022-10-13T10:23:42;97722.03;;;19.51;100.00
13867;BME280;7003;46.982;15.248;2022-10-13T10:26:16;97713.47;;;19.46;100.00
13867;BME280;7003;46.982;15.248;2022-10-13T10:29:18;97709.88;;;19.35;100.00
13867;BME280;7003;46.982;15.248;2022-10-13T10:31:56;97708.75;;;19.39;100.00
13867;BME280;7003;46.982;15.248;2022-10-13T10:34:35;97702.22;;;19.40;100.00
13867;BME280;7003;46.982;15.248;2022-10-13T10:37:14;97702.38;;;19.21;100.00
13867;BME280;7003;46.982;15.248;2022-10-13T10:39:54;97702.19;;;19.70;100.00
13867;BME280;7003;46.982;15.248;2022-10-13T10:42:43;97703.09;;;19.85;100.00
13867;BME280;7003;46.982;15.248;2022-10-13T10:45:19;97685.59;;;20.16;100.00
13867;BME280;7003;46.982;15.248;2022-10-13T10:47:52;97688.88;;;20.35;100.00
13867;BME280;7003;46.982;15.248;2022-10-13T10:50:25;97679.56;;;19.82;100.00
13867;BME280;7003;46.982;15.248;2022-10-13T10:52:59;97682.00;;;19.97;100.00
13867;BME280;7003;46.982;15.248;2022-10-13T10:55:31;97674.16;;;20.33;100.00
13867;BME280;7003;46.982;15.248;2022-10-13T10:58:10;97679.03;;;20.13;100.00
13867;BME280;7003;46.982;15.248;2022-10-13T11:00:49;97670.59;;;20.22;100.00
13867;BME280;7003;46.982;15.248;2022-10-13T11:03:27;97658.50;;;20.02;100.00
13867;BME280;7003;46.982;15.248;2022-10-13T11:06:01;97651.50;;;19.93;100.00
13867;BME280;7003;46.982;15.248;2022-10-13T11:08:39;97653.03;;;19.50;100.00
13867;BME280;7003;46.982;15.248;2022-10-13T11:11:35;97651.84;;;19.88;100.00
13867;BME280;7003;46.982;15.248;2022-10-13T11:14:31;97645.50;;;20.21;100.00
13867;BME280;7003;46.982;15.248;2022-10-13T11:17:15;97642.50;;;20.30;100.00
13867;BME280;7003;46.982;15.248;2022-10-13T11:19:47;97642.03;;;20.17;100.00
13867;BME280;7003;46.982;15.248;2022-10-13T11:22:20;97645.97;;;19.79;100.00
13867;BME280;7003;46.982;15.248;2022-10-13T11:25:00;97643.50;;;20.08;100.00
13867;BME280;7003;46.982;15.248;2022-10-13T11:27:39;97631.09;;;20.54;100.00
13867;BME280;7003;46.982;15.248;2022-10-13T11:30:45;97633.16;;;20.17;100.00
13867;BME280;7003;46.982;15.248;2022-10-13T11:33:50;97638.16;;;20.80;100.00
13867;BME280;7003;46.982;15.248;2022-10-13T11:39:50;97629.59;;;20.06;100.00
13867;BME280;7003;46.982;15.248;2022-10-13T11:42:48;97622.47;;;19.83;100.00
13867;BME280;7003;46.982;15.248;2022-10-13T11:51:55;97609.50;;;20.61;100.00
13867;BME280;7003;46.982;15.248;2022-10-13T11:54:32;97603.72;;;20.59;100.00
13867;BME280;7003;46.982;15.248;2022-10-13T11:57:15;97603.22;;;20.40;100.00
13867;BME280;7003;46.982;15.248;2022-10-13T11:59:45;97599.88;;;20.64;100.00
13867;BME280;7003;46.982;15.248;2022-10-13T12:02:16;97595.59;;;20.59;100.00
13867;BME280;7003;46.982;15.248;2022-10-13T12:04:59;97597.81;;;20.40;100.00
13867;BME280;7003;46.982;15.248;2022-10-13T12:07:30;97591.81;;;20.09;100.00
13867;BME280;7003;46.982;15.248;2022-10-13T12:10:05;97594.75;;;20.45;100.00
13867;BME280;7003;46.982;15.248;2022-10-13T12:12:34;97592.06;;;19.90;100.00
13867;BME280;7003;46.982;15.248;2022-10-13T12:17:45;97577.75;;;20.44;100.00
13867;BME280;7003;46.982;15.248;2022-10-13T12:20:21;97578.34;;;20.13;100.00
13867;BME280;7003;46.982;15.248;2022-10-13T12:22:52;97572.75;;;20.46;100.00
13867;BME280;7003;46.982;15.248;2022-10-13T12:25:22;97577.75;;;20.44;100.00
13867;BME280;7003;46.982;15.248;2022-10-13T12:27:52;97568.72;;;21.09;100.00
13867;BME280;7003;46.982;15.248;2022-10-13T12:30:22;97561.84;;;20.28;100.00
13867;BME280;7003;46.982;15.248;2022-10-13T12:32:59;97561.31;;;20.81;100.00
13867;BME280;7003;46.982;15.248;2022-10-13T12:35:30;97566.13;;;21.44;100.00
13867;BME280;7003;46.982;15.248;2022-10-13T12:38:00;97567.56;;;21.03;100.00
13867;BME280;7003;46.982;15.248;2022-10-13T12:40:29;97564.25;;;20.44;100.00
13867;BME280;7003;46.982;15.248;2022-10-13T12:42:57;97570.16;;;20.71;100.00
13867;BME280;7003;46.982;15.248;2022-10-13T12:45:30;97560.16;;;20.82;100.00
13867;BME280;7003;46.982;15.248;2022-10-13T12:48:02;97556.63;;;20.64;100.00
13867;BME280;7003;46.982;15.248;2022-10-13T12:50:38;97555.56;;;21.07;100.00
13867;BME280;7003;46.982;15.248;2022-10-13T12:53:16;97546.38;;;21.33;100.00
13867;BME280;7003;46.982;15.248;2022-10-13T12:55:50;97547.16;;;21.66;100.00
13867;BME280;7003;46.982;15.248;2022-10-13T12:58:22;97543.16;;;22.41;100.00
13867;BME280;7003;46.982;15.248;2022-10-13T13:00:55;97540.09;;;22.32;98.85
13867;BME280;7003;46.982;15.248;2022-10-13T13:03:26;97544.84;;;21.64;94.70
13867;BME280;7003;46.982;15.248;2022-10-13T13:06:23;97542.88;;;21.68;100.00
13867;BME280;7003;46.982;15.248;2022-10-13T13:09:19;97539.41;;;21.18;100.00
13867;BME280;7003;46.982;15.248;2022-10-13T13:12:00;97539.03;;;21.30;100.00
13867;BME280;7003;46.982;15.248;2022-10-13T13:14:34;97539.44;;;21.75;99.56
13867;BME280;7003;46.982;15.248;2022-10-13T13:17:06;97538.66;;;21.60;94.18
13867;BME280;7003;46.982;15.248;2022-10-13T13:19:35;97543.28;;;21.42;94.97
13867;BME280;7003;46.982;15.248;2022-10-13T13:22:05;97536.31;;;21.23;99.51
13867;BME280;7003;46.982;15.248;2022-10-13T13:24:33;97534.78;;;21.19;100.00
13867;BME280;7003;46.982;15.248;2022-10-13T13:27:17;97536.34;;;21.34;100.00
13867;BME280;7003;46.982;15.248;2022-10-13T13:29:47;97539.41;;;21.22;97.94
13867;BME280;7003;46.982;15.248;2022-10-13T13:32:19;97537.13;;;21.52;98.17
13867;BME280;7003;46.982;15.248;2022-10-13T13:34:48;97539.41;;;21.78;99.42
13867;BME280;7003;46.982;15.248;2022-10-13T13:37:26;97531.66;;;22.09;96.33